sensor_id;sensor_type;location;lat;lon;timestamp;temperature;humidity
66752;SHT31;53663;42.676;23.238;2023-03-21T00:02:01;12.40;50.91
66752;SHT31;53663;42.676;23.238;2023-03-21T00:04:27;12.40;50.32
66752;SHT31;53663;42.676;23.238;2023-03-21T00:06:52;12.34;50.70
66752;SHT31;53663;42.676;23.238;2023-03-21T00:09:19;12.37;50.51
66752;SHT31;53663;42.676;23.238;2023-03-21T00:11:45;12.37;50.35
66752;SHT31;53663;42.676;23.238;2023-03-21T00:14:11;12.23;51.04
66752;SHT31;53663;42.676;23.238;2023-03-21T00:16:39;12.25;50.92
66752;SHT31;53663;42.676;23.238;2023-03-21T00:19:05;12.30;50.78
66752;SHT31;53663;42.676;23.238;2023-03-21T00:21:32;12.30;51.09
66752;SHT31;53663;42.676;23.238;2023-03-21T00:23:59;12.33;51.17
66752;SHT31;53663;42.676;23.238;2023-03-21T00:26:25;12.30;51.23
66752;SHT31;53663;42.676;23.238;2023-03-21T00:28:51;12.19;51.58
66752;SHT31;53663;42.676;23.238;2023-03-21T00:31:19;12.06;52.30
66752;SHT31;53663;42.676;23.238;2023-03-21T00:33:45;11.99;52.48
66752;SHT31;53663;42.676;23.238;2023-03-21T00:36:11;12.11;52.65
66752;SHT31;53663;42.676;23.238;2023-03-21T00:38:37;12.18;52.18
66752;SHT31;53663;42.676;23.238;2023-03-21T00:41:07;12.13;51.71
66752;SHT31;53663;42.676;23.238;2023-03-21T00:43:34;12.11;52.06
66752;SHT31;53663;42.676;23.238;2023-03-21T00:46:00;12.12;51.94
66752;SHT31;53663;42.676;23.238;2023-03-21T00:48:26;12.06;52.04
66752;SHT31;53663;42.676;23.238;2023-03-21T00:50:53;11.95;52.55
66752;SHT31;53663;42.676;23.238;2023-03-21T00:53:20;11.86;52.79
66752;SHT31;53663;42.676;23.238;2023-03-21T00:55:46;11.79;53.55
66752;SHT31;53663;42.676;23.238;2023-03-21T00:58:13;11.75;53.79
66752;SHT31;53663;42.676;23.238;2023-03-21T01:00:39;11.75;53.63
66752;SHT31;53663;42.676;23.238;2023-03-21T01:03:07;11.72;53.55
66752;SHT31;53663;42.676;23.238;2023-03-21T01:05:36;11.75;53.58
66752;SHT31;53663;42.676;23.238;2023-03-21T01:08:22;11.75;53.70
66752;SHT31;53663;42.676;23.238;2023-03-21T01:10:49;11.78;53.56
66752;SHT31;53663;42.676;23.238;2023-03-21T01:13:18;11.48;53.52
66752;SHT31;53663;42.676;23.238;2023-03-21T01:15:49;11.26;53.58
66752;SHT31;53663;42.676;23.238;2023-03-21T01:18:16;11.26;54.08
66752;SHT31;53663;42.676;23.238;2023-03-21T01:20:43;11.41;55.18
66752;SHT31;53663;42.676;23.238;2023-03-21T01:23:10;11.47;54.86
66752;SHT31;53663;42.676;23.238;2023-03-21T01:25:36;11.40;54.71
66752;SHT31;53663;42.676;23.238;2023-03-21T01:28:04;11.38;54.65
66752;SHT31;53663;42.676;23.238;2023-03-21T01:30:30;11.38;54.24
66752;SHT31;53663;42.676;23.238;2023-03-21T01:32:56;11.38;54.27
66752;SHT31;53663;42.676;23.238;2023-03-21T01:35:22;11.37;54.82
66752;SHT31;53663;42.676;23.238;2023-03-21T01:37:48;11.27;55.04
66752;SHT31;53663;42.676;23.238;2023-03-21T01:40:20;11.20;55.21
66752;SHT31;53663;42.676;23.238;2023-03-21T01:42:47;11.27;55.35
66752;SHT31;53663;42.676;23.238;2023-03-21T01:48:18;11.20;55.09
66752;SHT31;53663;42.676;23.238;2023-03-21T01:50:50;11.12;55.53
66752;SHT31;53663;42.676;23.238;2023-03-21T01:53:34;11.07;55.81
66752;SHT31;53663;42.676;23.238;2023-03-21T01:56:10;11.05;55.89
66752;SHT31;53663;42.676;23.238;2023-03-21T01:59:13;11.05;56.08
66752;SHT31;53663;42.676;23.238;2023-03-21T02:01:52;11.00;56.57
66752;SHT31;53663;42.676;23.238;2023-03-21T02:04:23;10.88;57.24
66752;SHT31;53663;42.676;23.238;2023-03-21T02:07:17;10.88;57.48
66752;SHT31;53663;42.676;23.238;2023-03-21T02:09:54;10.97;57.09
66752;SHT31;53663;42.676;23.238;2023-03-21T02:12:22;10.91;56.96
66752;SHT31;53663;42.676;23.238;2023-03-21T02:14:49;10.86;56.87
66752;SHT31;53663;42.676;23.238;2023-03-21T02:17:41;10.96;57.16
66752;SHT31;53663;42.676;23.238;2023-03-21T02:21:17;11.00;56.83
66752;SHT31;53663;42.676;23.238;2023-03-21T02:28:55;10.88;57.54
66752;SHT31;53663;42.676;23.238;2023-03-21T02:39:52;10.72;58.03
66752;SHT31;53663;42.676;23.238;2023-03-21T02:45:19;10.68;58.06
66752;SHT31;53663;42.676;23.238;2023-03-21T02:47:58;10.66;57.73
66752;SHT31;53663;42.676;23.238;2023-03-21T02:50:40;10.64;58.52
66752;SHT31;53663;42.676;23.238;2023-03-21T02:53:10;10.62;58.73
66752;SHT31;53663;42.676;23.238;2023-03-21T02:55:39;10.57;58.66
66752;SHT31;53663;42.676;23.238;2023-03-21T02:58:12;10.51;59.47
66752;SHT31;53663;42.676;23.238;2023-03-21T03:00:46;10.61;59.48
66752;SHT31;53663;42.676;23.238;2023-03-21T03:03:22;10.64;59.00
66752;SHT31;53663;42.676;23.238;2023-03-21T03:05:51;10.65;58.78
66752;SHT31;53663;42.676;23.238;2023-03-21T03:21:31;10.57;58.73
66752;SHT31;53663;42.676;23.238;2023-03-21T03:26:33;10.52;59.26
66752;SHT31;53663;42.676;23.238;2023-03-21T03:29:07;10.45;59.08
66752;SHT31;53663;42.676;23.238;2023-03-21T03:31:41;10.44;59.14
66752;SHT31;53663;42.676;23.238;2023-03-21T03:34:12;10.31;59.04
66752;SHT31;53663;42.676;23.238;2023-03-21T03:36:44;10.30;59.23
66752;SHT31;53663;42.676;23.238;2023-03-21T03:39:14;10.22;59.50
66752;SHT31;53663;42.676;23.238;2023-03-21T03:41:59;10.20;59.56
66752;SHT31;53663;42.676;23.238;2023-03-21T03:44:30;10.14;59.64
66752;SHT31;53663;42.676;23.238;2023-03-21T03:47:05;10.04;59.70
66752;SHT31;53663;42.676;23.238;2023-03-21T03:49:41;10.00;59.74
66752;SHT31;53663;42.676;23.238;2023-03-21T03:52:12;9.99;59.73
66752;SHT31;53663;42.676;23.238;2023-03-21T03:54:50;9.93;59.98
66752;SHT31;53663;42.676;23.238;2023-03-21T03:57:17;9.94;59.79
66752;SHT31;53663;42.676;23.238;2023-03-21T03:59:44;9.93;59.91
66752;SHT31;53663;42.676;23.238;2023-03-21T04:02:30;9.96;59.10
66752;SHT31;53663;42.676;23.238;2023-03-21T04:04:58;9.90;59.06
66752;SHT31;53663;42.676;23.238;2023-03-21T04:07:25;9.86;59.01
66752;SHT31;53663;42.676;23.238;2023-03-21T04:09:54;9.86;59.46
66752;SHT31;53663;42.676;23.238;2023-03-21T04:12:20;9.86;59.81
66752;SHT31;53663;42.676;23.238;2023-03-21T04:15:06;9.80;59.57
66752;SHT31;53663;42.676;23.238;2023-03-21T04:17:32;9.80;59.54
66752;SHT31;53663;42.676;23.238;2023-03-21T04:19:58;9.80;59.67
66752;SHT31;53663;42.676;23.238;2023-03-21T04:22:23;9.80;60.22
66752;SHT31;53663;42.676;23.238;2023-03-21T04:24:50;9.75;59.99
66752;SHT31;53663;42.676;23.238;2023-03-21T04:27:16;9.70;60.26
66752;SHT31;53663;42.676;23.238;2023-03-21T04:29:56;9.63;60.28
66752;SHT31;53663;42.676;23.238;2023-03-21T04:32:35;9.56;60.40
66752;SHT31;53663;42.676;23.238;2023-03-21T04:35:09;9.55;60.96
66752;SHT31;53663;42.676;23.238;2023-03-21T04:37:36;9.48;60.93
66752;SHT31;53663;42.676;23.238;2023-03-21T04:40:05;9.48;61.21
66752;SHT31;53663;42.676;23.238;2023-03-21T04:42:33;9.45;61.44
66752;SHT31;53663;42.676;23.238;2023-03-21T04:44:58;9.49;61.79
66752;SHT31;53663;42.676;23.238;2023-03-21T04:47:24;9.49;61.72
66752;SHT31;53663;42.676;23.238;2023-03-21T04:49:53;9.41;61.80
66752;SHT31;53663;42.676;23.238;2023-03-21T04:52:19;9.45;62.56
66752;SHT31;53663;42.676;23.238;2023-03-21T04:54:45;9.42;62.05
66752;SHT31;53663;42.676;23.238;2023-03-21T04:57:11;9.45;61.79
66752;SHT31;53663;42.676;23.238;2023-03-21T04:59:36;9.41;62.31
66752;SHT31;53663;42.676;23.238;2023-03-21T05:02:02;9.48;62.14
66752;SHT31;53663;42.676;23.238;2023-03-21T05:04:29;9.51;62.36
66752;SHT31;53663;42.676;23.238;2023-03-21T05:06:55;9.58;62.78
66752;SHT31;53663;42.676;23.238;2023-03-21T05:09:20;9.66;62.70
66752;SHT31;53663;42.676;23.238;2023-03-21T05:11:50;9.69;62.35
66752;SHT31;53663;42.676;23.238;2023-03-21T05:14:22;9.70;61.92
66752;SHT31;53663;42.676;23.238;2023-03-21T05:16:48;9.65;61.84
66752;SHT31;53663;42.676;23.238;2023-03-21T05:19:24;9.66;62.02
66752;SHT31;53663;42.676;23.238;2023-03-21T05:22:03;9.68;62.22
66752;SHT31;53663;42.676;23.238;2023-03-21T05:24:30;9.72;62.15
66752;SHT31;53663;42.676;23.238;2023-03-21T05:26:56;9.70;62.26
66752;SHT31;53663;42.676;23.238;2023-03-21T05:29:30;9.70;62.66
66752;SHT31;53663;42.676;23.238;2023-03-21T05:32:00;9.65;63.09
66752;SHT31;53663;42.676;23.238;2023-03-21T05:34:26;9.70;62.89
66752;SHT31;53663;42.676;23.238;2023-03-21T05:36:53;9.73;62.08
66752;SHT31;53663;42.676;23.238;2023-03-21T05:39:20;9.83;62.60
66752;SHT31;53663;42.676;23.238;2023-03-21T05:41:58;9.93;63.27
66752;SHT31;53663;42.676;23.238;2023-03-21T05:44:24;9.97;62.56
66752;SHT31;53663;42.676;23.238;2023-03-21T05:46:49;10.03;63.20
66752;SHT31;53663;42.676;23.238;2023-03-21T05:49:16;9.99;62.81
66752;SHT31;53663;42.676;23.238;2023-03-21T05:51:42;9.86;62.39
66752;SHT31;53663;42.676;23.238;2023-03-21T05:54:11;9.86;63.12
66752;SHT31;53663;42.676;23.238;2023-03-21T05:56:43;10.06;62.14
66752;SHT31;53663;42.676;23.238;2023-03-21T05:59:11;10.21;62.73
66752;SHT31;53663;42.676;23.238;2023-03-21T06:01:41;10.31;62.78
66752;SHT31;53663;42.676;23.238;2023-03-21T06:04:12;10.41;62.98
66752;SHT31;53663;42.676;23.238;2023-03-21T06:06:38;10.55;61.01
66752;SHT31;53663;42.676;23.238;2023-03-21T06:09:04;10.69;61.78
66752;SHT31;53663;42.676;23.238;2023-03-21T06:11:34;10.79;61.53
66752;SHT31;53663;42.676;23.238;2023-03-21T06:14:19;10.86;60.74
66752;SHT31;53663;42.676;23.238;2023-03-21T06:16:56;10.96;60.23
66752;SHT31;53663;42.676;23.238;2023-03-21T06:19:23;11.12;60.61
66752;SHT31;53663;42.676;23.238;2023-03-21T06:22:12;11.23;60.26
66752;SHT31;53663;42.676;23.238;2023-03-21T06:24:39;11.36;60.14
66752;SHT31;53663;42.676;23.238;2023-03-21T06:27:05;11.43;60.13
66752;SHT31;53663;42.676;23.238;2023-03-21T06:29:43;11.44;60.46
66752;SHT31;53663;42.676;23.238;2023-03-21T06:32:11;11.57;59.54
66752;SHT31;53663;42.676;23.238;2023-03-21T06:34:37;11.68;59.35
66752;SHT31;53663;42.676;23.238;2023-03-21T06:37:02;11.65;58.52
66752;SHT31;53663;42.676;23.238;2023-03-21T06:39:31;11.71;58.17
66752;SHT31;53663;42.676;23.238;2023-03-21T06:41:57;11.75;56.61
66752;SHT31;53663;42.676;23.238;2023-03-21T06:44:23;11.78;56.56
66752;SHT31;53663;42.676;23.238;2023-03-21T06:46:56;11.92;56.67
66752;SHT31;53663;42.676;23.238;2023-03-21T06:49:22;11.98;55.86
66752;SHT31;53663;42.676;23.238;2023-03-21T06:51:48;12.03;55.15
66752;SHT31;53663;42.676;23.238;2023-03-21T06:54:17;12.12;54.76
66752;SHT31;53663;42.676;23.238;2023-03-21T06:56:52;12.26;54.35
66752;SHT31;53663;42.676;23.238;2023-03-21T06:59:24;12.40;54.09
66752;SHT31;53663;42.676;23.238;2023-03-21T07:01:57;12.50;52.70
66752;SHT31;53663;42.676;23.238;2023-03-21T07:04:23;12.64;52.74
66752;SHT31;53663;42.676;23.238;2023-03-21T07:06:49;12.74;53.14
66752;SHT31;53663;42.676;23.238;2023-03-21T07:09:16;12.95;52.13
66752;SHT31;53663;42.676;23.238;2023-03-21T07:11:43;12.94;50.81
66752;SHT31;53663;42.676;23.238;2023-03-21T07:14:08;13.05;50.73
66752;SHT31;53663;42.676;23.238;2023-03-21T07:16:34;13.07;50.95
66752;SHT31;53663;42.676;23.238;2023-03-21T07:19:00;12.99;51.09
66752;SHT31;53663;42.676;23.238;2023-03-21T07:21:25;12.98;51.00
66752;SHT31;53663;42.676;23.238;2023-03-21T07:23:52;13.01;52.32
66752;SHT31;53663;42.676;23.238;2023-03-21T07:26:17;13.14;52.98
66752;SHT31;53663;42.676;23.238;2023-03-21T07:28:44;13.09;50.86
66752;SHT31;53663;42.676;23.238;2023-03-21T07:31:15;13.09;49.79
66752;SHT31;53663;42.676;23.238;2023-03-21T07:33:41;13.07;49.70
66752;SHT31;53663;42.676;23.238;2023-03-21T07:36:10;13.05;50.75
66752;SHT31;53663;42.676;23.238;2023-03-21T07:38:36;13.05;50.89
66752;SHT31;53663;42.676;23.238;2023-03-21T07:41:02;13.15;50.61
66752;SHT31;53663;42.676;23.238;2023-03-21T07:43:31;13.26;50.32
66752;SHT31;53663;42.676;23.238;2023-03-21T07:45:58;13.40;50.02
66752;SHT31;53663;42.676;23.238;2023-03-21T07:48:25;13.52;50.92
66752;SHT31;53663;42.676;23.238;2023-03-21T07:50:51;13.65;49.62
66752;SHT31;53663;42.676;23.238;2023-03-21T07:53:16;13.71;48.53
66752;SHT31;53663;42.676;23.238;2023-03-21T07:55:42;13.70;49.33
66752;SHT31;53663;42.676;23.238;2023-03-21T07:58:08;13.81;48.58
66752;SHT31;53663;42.676;23.238;2023-03-21T08:00:33;13.80;47.86
66752;SHT31;53663;42.676;23.238;2023-03-21T08:02:59;13.78;47.46
66752;SHT31;53663;42.676;23.238;2023-03-21T08:05:32;13.55;48.11
66752;SHT31;53663;42.676;23.238;2023-03-21T08:07:58;13.70;48.93
66752;SHT31;53663;42.676;23.238;2023-03-21T08:10:24;13.87;48.16
66752;SHT31;53663;42.676;23.238;2023-03-21T08:12:49;13.81;48.42
66752;SHT31;53663;42.676;23.238;2023-03-21T08:15:15;13.93;48.19
66752;SHT31;53663;42.676;23.238;2023-03-21T08:17:41;13.96;48.31
66752;SHT31;53663;42.676;23.238;2023-03-21T08:20:11;14.01;47.83
66752;SHT31;53663;42.676;23.238;2023-03-21T08:22:37;14.01;48.01
66752;SHT31;53663;42.676;23.238;2023-03-21T08:25:06;14.05;47.82
66752;SHT31;53663;42.676;23.238;2023-03-21T08:27:32;14.08;47.23
66752;SHT31;53663;42.676;23.238;2023-03-21T08:29:59;14.10;47.03
66752;SHT31;53663;42.676;23.238;2023-03-21T08:32:25;14.21;46.77
66752;SHT31;53663;42.676;23.238;2023-03-21T08:34:58;14.44;47.61
66752;SHT31;53663;42.676;23.238;2023-03-21T08:37:24;14.34;46.53
66752;SHT31;53663;42.676;23.238;2023-03-21T08:39:50;14.31;45.66
66752;SHT31;53663;42.676;23.238;2023-03-21T08:42:15;14.25;47.20
66752;SHT31;53663;42.676;23.238;2023-03-21T08:44:41;14.18;47.75
66752;SHT31;53663;42.676;23.238;2023-03-21T08:47:06;14.26;47.50
66752;SHT31;53663;42.676;23.238;2023-03-21T08:49:34;14.28;47.42
66752;SHT31;53663;42.676;23.238;2023-03-21T08:52:00;14.42;49.27
66752;SHT31;53663;42.676;23.238;2023-03-21T08:54:25;14.42;49.87
66752;SHT31;53663;42.676;23.238;2023-03-21T08:56:51;14.48;49.94
66752;SHT31;53663;42.676;23.238;2023-03-21T08:59:16;14.56;49.42
66752;SHT31;53663;42.676;23.238;2023-03-21T09:01:42;14.55;49.62
66752;SHT31;53663;42.676;23.238;2023-03-21T09:04:08;14.61;50.11
66752;SHT31;53663;42.676;23.238;2023-03-21T09:06:38;14.58;49.66
66752;SHT31;53663;42.676;23.238;2023-03-21T09:09:10;14.73;49.83
66752;SHT31;53663;42.676;23.238;2023-03-21T09:11:37;14.63;49.60
66752;SHT31;53663;42.676;23.238;2023-03-21T09:14:03;14.63;48.77
66752;SHT31;53663;42.676;23.238;2023-03-21T09:16:29;14.59;49.30
66752;SHT31;53663;42.676;23.238;2023-03-21T09:18:55;14.66;48.73
66752;SHT31;53663;42.676;23.238;2023-03-21T09:21:24;14.73;49.63
66752;SHT31;53663;42.676;23.238;2023-03-21T09:23:51;14.71;48.03
66752;SHT31;53663;42.676;23.238;2023-03-21T09:26:21;14.75;48.26
66752;SHT31;53663;42.676;23.238;2023-03-21T09:28:48;14.72;48.87
66752;SHT31;53663;42.676;23.238;2023-03-21T09:31:15;14.80;49.19
66752;SHT31;53663;42.676;23.238;2023-03-21T09:33:48;14.71;48.43
66752;SHT31;53663;42.676;23.238;2023-03-21T09:36:14;14.77;48.57
66752;SHT31;53663;42.676;23.238;2023-03-21T09:38:40;14.87;47.64
66752;SHT31;53663;42.676;23.238;2023-03-21T09:44:09;14.87;47.68
66752;SHT31;53663;42.676;23.238;2023-03-21T09:49:39;14.86;47.55
66752;SHT31;53663;42.676;23.238;2023-03-21T09:52:14;15.04;46.53
66752;SHT31;53663;42.676;23.238;2023-03-21T09:54:42;15.03;47.36
66752;SHT31;53663;42.676;23.238;2023-03-21T09:57:30;15.00;47.94
66752;SHT31;53663;42.676;23.238;2023-03-21T10:00:00;14.94;47.97
66752;SHT31;53663;42.676;23.238;2023-03-21T10:02:43;14.86;48.00
66752;SHT31;53663;42.676;23.238;2023-03-21T10:05:26;15.10;46.56
66752;SHT31;53663;42.676;23.238;2023-03-21T10:08:00;15.21;46.68
66752;SHT31;53663;42.676;23.238;2023-03-21T10:10:34;15.35;48.13
66752;SHT31;53663;42.676;23.238;2023-03-21T10:13:02;15.63;46.99
66752;SHT31;53663;42.676;23.238;2023-03-21T10:15:29;15.92;46.94
66752;SHT31;53663;42.676;23.238;2023-03-21T10:18:00;15.99;44.71
66752;SHT31;53663;42.676;23.238;2023-03-21T10:20:37;16.19;43.42
66752;SHT31;53663;42.676;23.238;2023-03-21T10:23:06;16.37;44.76
66752;SHT31;53663;42.676;23.238;2023-03-21T10:25:35;16.60;44.52
66752;SHT31;53663;42.676;23.238;2023-03-21T10:28:04;16.78;44.37
66752;SHT31;53663;42.676;23.238;2023-03-21T10:33:13;16.81;40.66
66752;SHT31;53663;42.676;23.238;2023-03-21T10:35:40;16.96;39.99
66752;SHT31;53663;42.676;23.238;2023-03-21T10:38:14;17.05;40.85
66752;SHT31;53663;42.676;23.238;2023-03-21T10:40:41;17.02;40.49
66752;SHT31;53663;42.676;23.238;2023-03-21T10:43:35;16.92;37.64
66752;SHT31;53663;42.676;23.238;2023-03-21T10:46:18;16.77;38.83
66752;SHT31;53663;42.676;23.238;2023-03-21T10:48:50;16.61;41.56
66752;SHT31;53663;42.676;23.238;2023-03-21T10:51:20;16.64;41.84
66752;SHT31;53663;42.676;23.238;2023-03-21T10:54:07;16.79;40.96
66752;SHT31;53663;42.676;23.238;2023-03-21T10:56:37;16.88;39.85
66752;SHT31;53663;42.676;23.238;2023-03-21T10:59:05;16.98;39.23
66752;SHT31;53663;42.676;23.238;2023-03-21T11:01:38;17.09;38.68
66752;SHT31;53663;42.676;23.238;2023-03-21T11:04:13;17.19;38.08
66752;SHT31;53663;42.676;23.238;2023-03-21T11:06:43;17.11;39.46
66752;SHT31;53663;42.676;23.238;2023-03-21T11:09:18;17.09;38.58
66752;SHT31;53663;42.676;23.238;2023-03-21T11:12:09;17.04;39.00
66752;SHT31;53663;42.676;23.238;2023-03-21T11:14:43;17.12;37.92
66752;SHT31;53663;42.676;23.238;2023-03-21T11:19:49;17.12;40.04
66752;SHT31;53663;42.676;23.238;2023-03-21T11:22:16;17.22;39.15
66752;SHT31;53663;42.676;23.238;2023-03-21T11:24:49;17.35;39.16
66752;SHT31;53663;42.676;23.238;2023-03-21T11:27:15;17.30;38.30
66752;SHT31;53663;42.676;23.238;2023-03-21T11:29:49;17.12;37.90
66752;SHT31;53663;42.676;23.238;2023-03-21T11:34:46;17.33;38.54
66752;SHT31;53663;42.676;23.238;2023-03-21T11:37:19;17.19;38.76
66752;SHT31;53663;42.676;23.238;2023-03-21T11:39:45;17.22;37.87
66752;SHT31;53663;42.676;23.238;2023-03-21T11:42:26;17.35;37.08
66752;SHT31;53663;42.676;23.238;2023-03-21T11:45:09;17.20;36.83
66752;SHT31;53663;42.676;23.238;2023-03-21T11:47:35;17.15;37.33
66752;SHT31;53663;42.676;23.238;2023-03-21T11:50:01;17.08;36.56
66752;SHT31;53663;42.676;23.238;2023-03-21T12:04:38;16.92;37.83
66752;SHT31;53663;42.676;23.238;2023-03-21T12:10:22;17.01;38.16
66752;SHT31;53663;42.676;23.238;2023-03-21T12:15:47;17.22;37.22
66752;SHT31;53663;42.676;23.238;2023-03-21T12:19:01;17.15;37.27
66752;SHT31;53663;42.676;23.238;2023-03-21T12:21:53;17.11;36.83
66752;SHT31;53663;42.676;23.238;2023-03-21T12:35:24;17.27;37.46
66752;SHT31;53663;42.676;23.238;2023-03-21T12:38:31;17.18;37.88
66752;SHT31;53663;42.676;23.238;2023-03-21T12:41:21;17.23;36.91
66752;SHT31;53663;42.676;23.238;2023-03-21T12:44:03;17.27;37.27
66752;SHT31;53663;42.676;23.238;2023-03-21T12:46:59;17.29;36.83
66752;SHT31;53663;42.676;23.238;2023-03-21T12:49:37;17.22;37.13
66752;SHT31;53663;42.676;23.238;2023-03-21T12:52:11;17.35;35.70
66752;SHT31;53663;42.676;23.238;2023-03-21T12:54:52;17.36;34.49
66752;SHT31;53663;42.676;23.238;2023-03-21T12:57:29;17.11;35.40
66752;SHT31;53663;42.676;23.238;2023-03-21T13:00:06;17.14;34.97
66752;SHT31;53663;42.676;23.238;2023-03-21T13:02:56;17.01;35.04
66752;SHT31;53663;42.676;23.238;2023-03-21T13:05:34;16.86;35.16
66752;SHT31;53663;42.676;23.238;2023-03-21T13:10:44;16.85;37.94
66752;SHT31;53663;42.676;23.238;2023-03-21T13:16:05;16.85;36.37
66752;SHT31;53663;42.676;23.238;2023-03-21T13:21:27;16.85;38.11
66752;SHT31;53663;42.676;23.238;2023-03-21T13:24:01;17.04;37.88
66752;SHT31;53663;42.676;23.238;2023-03-21T13:26:39;17.11;36.69
66752;SHT31;53663;42.676;23.238;2023-03-21T13:29:27;17.04;37.37
66752;SHT31;53663;42.676;23.238;2023-03-21T13:31:55;17.09;35.66
66752;SHT31;53663;42.676;23.238;2023-03-21T13:34:23;16.99;36.27
66752;SHT31;53663;42.676;23.238;2023-03-21T13:36:50;16.86;38.45
66752;SHT31;53663;42.676;23.238;2023-03-21T13:39:24;16.79;38.15
66752;SHT31;53663;42.676;23.238;2023-03-21T13:41:50;16.77;38.37
66752;SHT31;53663;42.676;23.238;2023-03-21T13:46:53;16.94;37.45
66752;SHT31;53663;42.676;23.238;2023-03-21T13:51:53;17.04;36.91
66752;SHT31;53663;42.676;23.238;2023-03-21T13:56:59;17.08;37.28
66752;SHT31;53663;42.676;23.238;2023-03-21T14:04:40;17.14;36.75
66752;SHT31;53663;42.676;23.238;2023-03-21T14:07:10;17.09;36.78
66752;SHT31;53663;42.676;23.238;2023-03-21T14:09:43;16.88;38.61
66752;SHT31;53663;42.676;23.238;2023-03-21T14:12:14;16.89;37.57
66752;SHT31;53663;42.676;23.238;2023-03-21T14:14:44;16.85;37.48
66752;SHT31;53663;42.676;23.238;2023-03-21T14:17:22;16.84;37.60
66752;SHT31;53663;42.676;23.238;2023-03-21T14:19:51;16.61;38.38
66752;SHT31;53663;42.676;23.238;2023-03-21T14:22:17;16.51;38.74
66752;SHT31;53663;42.676;23.238;2023-03-21T14:24:59;16.60;38.67
66752;SHT31;53663;42.676;23.238;2023-03-21T14:27:29;16.38;39.31
66752;SHT31;53663;42.676;23.238;2023-03-21T14:29:57;16.26;39.68
66752;SHT31;53663;42.676;23.238;2023-03-21T14:32:25;16.19;39.95
66752;SHT31;53663;42.676;23.238;2023-03-21T14:34:53;16.33;39.98
66752;SHT31;53663;42.676;23.238;2023-03-21T14:37:30;16.43;39.47
66752;SHT31;53663;42.676;23.238;2023-03-21T14:40:01;16.51;39.43
66752;SHT31;53663;42.676;23.238;2023-03-21T14:42:34;16.63;40.24
66752;SHT31;53663;42.676;23.238;2023-03-21T14:44:59;16.56;41.21
66752;SHT31;53663;42.676;23.238;2023-03-21T14:47:31;16.57;43.34
66752;SHT31;53663;42.676;23.238;2023-03-21T14:49:58;16.46;46.73
66752;SHT31;53663;42.676;23.238;2023-03-21T14:52:30;16.43;46.64
66752;SHT31;53663;42.676;23.238;2023-03-21T14:54:56;16.34;46.22
66752;SHT31;53663;42.676;23.238;2023-03-21T14:57:28;16.14;46.77
66752;SHT31;53663;42.676;23.238;2023-03-21T14:59:58;15.99;48.26
66752;SHT31;53663;42.676;23.238;2023-03-21T15:02:31;15.81;48.39
66752;SHT31;53663;42.676;23.238;2023-03-21T15:07:38;15.72;48.34
66752;SHT31;53663;42.676;23.238;2023-03-21T15:10:15;15.58;47.15
66752;SHT31;53663;42.676;23.238;2023-03-21T15:13:15;15.78;46.39
66752;SHT31;53663;42.676;23.238;2023-03-21T15:15:43;15.52;47.61
66752;SHT31;53663;42.676;23.238;2023-03-21T15:18:13;15.28;48.08
66752;SHT31;53663;42.676;23.238;2023-03-21T15:20:40;15.00;49.96
66752;SHT31;53663;42.676;23.238;2023-03-21T15:23:10;14.86;50.97
66752;SHT31;53663;42.676;23.238;2023-03-21T15:25:37;14.96;51.95
66752;SHT31;53663;42.676;23.238;2023-03-21T15:28:03;14.99;50.17
66752;SHT31;53663;42.676;23.238;2023-03-21T15:30:30;15.19;49.22
66752;SHT31;53663;42.676;23.238;2023-03-21T15:33:00;15.10;51.10
66752;SHT31;53663;42.676;23.238;2023-03-21T15:35:44;14.86;53.10
66752;SHT31;53663;42.676;23.238;2023-03-21T15:38:43;14.72;53.14
66752;SHT31;53663;42.676;23.238;2023-03-21T15:43:44;14.36;54.95
66752;SHT31;53663;42.676;23.238;2023-03-21T15:46:15;14.44;59.54
66752;SHT31;53663;42.676;23.238;2023-03-21T15:48:42;14.22;59.26
66752;SHT31;53663;42.676;23.238;2023-03-21T15:51:20;13.81;60.79
66752;SHT31;53663;42.676;23.238;2023-03-21T15:53:47;13.74;62.73
66752;SHT31;53663;42.676;23.238;2023-03-21T15:56:12;13.77;62.83
66752;SHT31;53663;42.676;23.238;2023-03-21T15:58:45;13.60;64.42
66752;SHT31;53663;42.676;23.238;2023-03-21T16:01:18;13.71;64.72
66752;SHT31;53663;42.676;23.238;2023-03-21T16:03:46;13.43;66.94
66752;SHT31;53663;42.676;23.238;2023-03-21T16:06:18;13.53;66.66
66752;SHT31;53663;42.676;23.238;2023-03-21T16:08:49;13.15;67.65
66752;SHT31;53663;42.676;23.238;2023-03-21T16:11:27;12.87;69.21
66752;SHT31;53663;42.676;23.238;2023-03-21T16:13:54;12.56;70.93
66752;SHT31;53663;42.676;23.238;2023-03-21T16:16:25;12.37;72.21
66752;SHT31;53663;42.676;23.238;2023-03-21T16:18:53;12.76;71.77
66752;SHT31;53663;42.676;23.238;2023-03-21T16:21:21;12.54;71.88
66752;SHT31;53663;42.676;23.238;2023-03-21T16:23:47;12.81;73.26
66752;SHT31;53663;42.676;23.238;2023-03-21T16:26:24;13.08;73.14
66752;SHT31;53663;42.676;23.238;2023-03-21T16:28:50;13.19;73.66
66752;SHT31;53663;42.676;23.238;2023-03-21T16:31:19;13.18;70.83
66752;SHT31;53663;42.676;23.238;2023-03-21T16:33:46;13.16;71.98
66752;SHT31;53663;42.676;23.238;2023-03-21T16:38:44;13.25;70.43
66752;SHT31;53663;42.676;23.238;2023-03-21T16:41:11;13.05;69.93
66752;SHT31;53663;42.676;23.238;2023-03-21T16:43:37;13.12;71.24
66752;SHT31;53663;42.676;23.238;2023-03-21T16:46:23;12.98;72.91
66752;SHT31;53663;42.676;23.238;2023-03-21T16:48:51;13.01;73.23
66752;SHT31;53663;42.676;23.238;2023-03-21T16:51:20;13.11;73.32
66752;SHT31;53663;42.676;23.238;2023-03-21T16:53:47;13.11;73.55
66752;SHT31;53663;42.676;23.238;2023-03-21T16:56:16;13.07;73.33
66752;SHT31;53663;42.676;23.238;2023-03-21T16:58:42;13.02;73.63
66752;SHT31;53663;42.676;23.238;2023-03-21T17:01:16;13.05;73.41
66752;SHT31;53663;42.676;23.238;2023-03-21T17:03:44;13.05;73.23
66752;SHT31;53663;42.676;23.238;2023-03-21T17:06:15;12.67;73.05
66752;SHT31;53663;42.676;23.238;2023-03-21T17:08:40;12.80;73.64
66752;SHT31;53663;42.676;23.238;2023-03-21T17:11:15;12.87;74.29
66752;SHT31;53663;42.676;23.238;2023-03-21T17:13:45;12.92;73.92
66752;SHT31;53663;42.676;23.238;2023-03-21T17:16:15;12.83;73.68
66752;SHT31;53663;42.676;23.238;2023-03-21T17:18:41;12.74;73.92
66752;SHT31;53663;42.676;23.238;2023-03-21T17:21:16;12.70;74.02
66752;SHT31;53663;42.676;23.238;2023-03-21T17:23:42;12.65;73.92
66752;SHT31;53663;42.676;23.238;2023-03-21T17:26:13;12.73;73.13
66752;SHT31;53663;42.676;23.238;2023-03-21T17:28:40;12.70;73.13